createdAt,value
2023-02-19T00:01:12.989Z,101831.56
2023-02-19T00:03:40.370Z,101830.69
2023-02-19T00:06:09.959Z,101837.53
2023-02-19T00:08:38.329Z,101832.41
2023-02-19T00:11:11.108Z,101831.59
2023-02-19T00:13:39.114Z,101841.84
2023-02-19T00:16:16.619Z,101835.00
2023-02-19T00:18:43.484Z,101836.72
2023-02-19T00:21:10.314Z,101841.84
2023-02-19T00:23:37.605Z,101847.00
2023-02-19T00:26:18.089Z,101835.03
2023-02-19T00:28:46.743Z,101851.31
2023-02-19T00:31:18.165Z,101849.59
2023-02-19T00:33:45.696Z,101852.16
2023-02-19T00:36:13.547Z,101856.44
2023-02-19T00:38:41.956Z,101852.16
2023-02-19T00:41:21.614Z,101850.47
2023-02-19T00:43:53.537Z,101850.47
2023-02-19T00:46:28.656Z,101858.16
2023-02-19T00:48:56.260Z,101857.28
2023-02-19T00:51:25.683Z,101860.72
2023-02-19T00:53:52.520Z,101848.75
2023-02-19T00:56:19.279Z,101848.72
2023-02-19T00:58:46.500Z,101853.88
2023-02-19T01:01:13.589Z,101852.19
2023-02-19T01:03:40.711Z,101855.59
2023-02-19T01:06:09.517Z,101866.72
2023-02-19T01:08:36.392Z,101860.75
2023-02-19T01:11:04.558Z,101865.88
2023-02-19T01:13:31.527Z,101862.44
2023-02-19T01:16:09.330Z,101870.94
2023-02-19T01:18:35.999Z,101878.66
2023-02-19T01:21:07.911Z,101880.38
2023-02-19T01:23:35.251Z,101880.41
2023-02-19T01:26:05.358Z,101878.66
2023-02-19T01:28:31.904Z,101888.13
2023-02-19T01:31:03.704Z,101883.81
2023-02-19T01:33:31.198Z,101888.13
2023-02-19T01:35:57.800Z,101888.13
2023-02-19T01:38:24.235Z,101892.41
2023-02-19T01:40:58.351Z,101888.19
2023-02-19T01:43:25.072Z,101882.19
2023-02-19T01:45:53.445Z,101882.19
2023-02-19T01:48:39.254Z,101886.53
2023-02-19T01:51:11.312Z,101887.41
2023-02-19T01:53:41.910Z,101893.38
2023-02-19T01:56:09.817Z,101895.09
2023-02-19T01:58:37.716Z,101893.44
2023-02-19T02:01:07.116Z,101890.03
2023-02-19T02:03:35.609Z,101891.75
2023-02-19T02:06:07.918Z,101886.63
2023-02-19T02:08:52.847Z,101893.50
2023-02-19T02:11:20.305Z,101891.81
2023-02-19T02:13:46.916Z,101896.06
2023-02-19T02:16:26.971Z,101896.09
2023-02-19T02:19:00.049Z,101890.97
2023-02-19T02:21:44.458Z,101896.13
2023-02-19T02:24:43.873Z,101896.13
2023-02-19T02:27:33.214Z,101892.69
2023-02-19T02:30:38.637Z,101897.00
2023-02-19T02:33:41.294Z,101904.69
2023-02-19T02:36:13.106Z,101898.75
2023-02-19T02:38:42.739Z,101903.88
2023-02-19T02:41:09.867Z,101897.88
2023-02-19T02:43:36.556Z,101911.56
2023-02-19T02:46:03.136Z,101914.13
2023-02-19T02:48:47.280Z,101909.00
2023-02-19T02:51:31.827Z,101903.88
2023-02-19T02:54:25.455Z,101910.72
2023-02-19T02:56:53.004Z,101905.59
2023-02-19T02:59:23.649Z,101912.44
2023-02-19T03:02:14.278Z,101915.84
2023-02-19T03:05:25.264Z,101928.69
2023-02-19T03:08:11.242Z,101923.56
2023-02-19T03:10:49.040Z,101912.47
2023-02-19T03:13:56.889Z,101919.28
2023-02-19T03:16:47.575Z,101928.66
2023-02-19T03:19:19.169Z,101932.94
2023-02-19T03:21:51.724Z,101931.22
2023-02-19T03:24:41.038Z,101932.94
2023-02-19T03:27:11.537Z,101930.38
2023-02-19T03:29:41.005Z,101928.69
2023-02-19T03:32:33.458Z,101938.13
2023-02-19T03:35:20.669Z,101939.81
2023-02-19T03:38:04.502Z,101943.25
2023-02-19T03:40:40.044Z,101944.06
2023-02-19T03:43:23.421Z,101946.66
2023-02-19T03:45:49.798Z,101946.69
2023-02-19T03:48:22.898Z,101950.06
2023-02-19T03:51:05.494Z,101958.66
2023-02-19T03:53:34.877Z,101960.34
2023-02-19T03:56:10.901Z,101959.50
2023-02-19T03:58:49.230Z,101960.38
2023-02-19T04:01:32.419Z,101974.94
2023-02-19T04:04:12.645Z,101966.41
2023-02-19T04:06:42.140Z,101968.97
2023-02-19T04:09:11.703Z,101973.25
2023-02-19T04:11:38.978Z,101976.69
2023-02-19T04:14:11.594Z,101980.09
2023-02-19T04:16:42.669Z,101992.91
2023-02-19T04:19:16.823Z,101990.34
2023-02-19T04:21:45.268Z,101995.47
2023-02-19T04:24:18.842Z,101999.75
2023-02-19T04:26:45.363Z,102001.47
2023-02-19T04:29:11.860Z,102003.16
2023-02-19T04:31:38.604Z,102008.28
2023-02-19T04:34:05.378Z,102005.72
2023-02-19T04:36:33.158Z,102009.19
2023-02-19T04:38:59.638Z,102015.97
2023-02-19T04:41:26.055Z,102027.94
2023-02-19T04:43:52.498Z,102015.97
2023-02-19T04:46:19.039Z,102034.78
2023-02-19T04:48:45.571Z,102033.06
2023-02-19T04:51:12.358Z,102038.19
2023-02-19T04:53:38.983Z,102045.03
2023-02-19T04:56:10.612Z,102044.16
2023-02-19T04:58:37.357Z,102052.72
2023-02-19T05:01:04.358Z,102056.13
2023-02-19T05:03:31.490Z,102056.13
2023-02-19T05:05:57.899Z,102056.13
2023-02-19T05:08:24.281Z,102059.53
2023-02-19T05:10:50.694Z,102062.97
2023-02-19T05:13:17.174Z,102072.34
2023-02-19T05:16:04.070Z,102064.66
2023-02-19T05:18:31.368Z,102070.66
2023-02-19T05:20:59.346Z,102077.50
2023-02-19T05:23:25.870Z,102075.78
2023-02-19T05:25:52.690Z,102081.75
2023-02-19T05:28:19.259Z,102079.19
2023-02-19T05:30:51.108Z,102088.56
2023-02-19T05:33:20.820Z,102095.41
2023-02-19T05:35:49.829Z,102085.19
2023-02-19T05:38:17.284Z,102091.19
2023-02-19T05:40:44.875Z,102084.38
2023-02-19T05:43:12.149Z,102087.78
2023-02-19T05:45:39.005Z,102092.06
2023-02-19T05:48:07.014Z,102086.94
2023-02-19T05:50:35.341Z,102100.63
2023-02-19T05:53:02.877Z,102086.94
2023-02-19T05:55:30.133Z,102084.38
2023-02-19T05:57:56.529Z,102091.22
2023-02-19T06:00:23.173Z,102098.91
2023-02-19T06:02:49.633Z,102107.44
2023-02-19T06:05:16.116Z,102104.06
2023-02-19T06:07:42.972Z,102114.28
2023-02-19T06:10:11.067Z,102105.75
2023-02-19T06:12:38.402Z,102113.44
2023-02-19T06:15:06.439Z,102110.91
2023-02-19T06:17:34.067Z,102117.72
2023-02-19T06:20:00.881Z,102129.69
2023-02-19T06:22:27.964Z,102139.09
2023-02-19T06:24:54.341Z,102137.38
2023-02-19T06:27:21.148Z,102141.66
2023-02-19T06:29:47.607Z,102140.78
2023-02-19T06:32:14.203Z,102148.50
2023-02-19T06:34:40.703Z,102156.19
2023-02-19T06:37:07.190Z,102158.75
2023-02-19T06:39:33.612Z,102152.81
2023-02-19T06:42:00.152Z,102154.50
2023-02-19T06:44:26.577Z,102161.34
2023-02-19T06:46:55.350Z,102167.31
2023-02-19T06:49:21.986Z,102177.56
2023-02-19T06:51:48.456Z,102171.59
2023-02-19T06:54:14.937Z,102178.41
2023-02-19T06:56:42.882Z,102175.03
2023-02-19T06:59:16.910Z,102183.56
2023-02-19T07:01:44.853Z,102181.00
2023-02-19T07:04:11.414Z,102181.00
2023-02-19T07:06:38.234Z,102189.56
2023-02-19T07:09:06.727Z,102201.47
2023-02-19T07:11:34.967Z,102202.34
2023-02-19T07:14:03.724Z,102207.47
2023-02-19T07:16:30.814Z,102202.34
2023-02-19T07:18:58.641Z,102206.59
2023-02-19T07:21:25.291Z,102215.16
2023-02-19T07:23:52.175Z,102228.81
2023-02-19T07:26:20.937Z,102230.50
2023-02-19T07:28:49.761Z,102229.66
2023-02-19T07:31:18.696Z,102230.50
2023-02-19T07:33:46.141Z,102230.53
2023-02-19T07:36:14.072Z,102245.88
2023-02-19T07:38:40.518Z,102245.00
2023-02-19T07:41:07.574Z,102251.00
2023-02-19T07:43:36.673Z,102253.56
2023-02-19T07:46:09.062Z,102249.28
2023-02-19T07:48:36.728Z,102249.25
2023-02-19T07:51:04.991Z,102256.09
2023-02-19T07:53:33.533Z,102262.03
2023-02-19T07:56:01.968Z,102260.38
2023-02-19T07:58:29.113Z,102276.56
2023-02-19T08:00:55.859Z,102266.34
2023-02-19T08:03:22.455Z,102271.44
2023-02-19T08:05:51.379Z,102275.72
2023-02-19T08:08:18.000Z,102283.41
2023-02-19T08:11:02.827Z,102287.66
2023-02-19T08:13:30.850Z,102288.53
2023-02-19T08:16:20.117Z,102291.09
2023-02-19T08:18:48.746Z,102290.22
2023-02-19T08:21:18.220Z,102297.03
2023-02-19T08:23:46.192Z,102308.13
2023-02-19T08:26:12.595Z,102308.97
2023-02-19T08:28:39.052Z,102314.94
2023-02-19T08:31:07.463Z,102322.63
2023-02-19T08:33:34.191Z,102326.06
2023-02-19T08:36:09.047Z,102328.63
2023-02-19T08:38:36.853Z,102336.31
2023-02-19T08:41:09.214Z,102332.88
2023-02-19T08:43:36.182Z,102339.69
2023-02-19T08:46:06.485Z,102340.56
2023-02-19T08:48:33.630Z,102337.09
2023-02-19T08:51:03.866Z,102346.50
2023-02-19T08:53:33.140Z,102342.25
2023-02-19T08:56:04.846Z,102335.41
2023-02-19T08:58:32.798Z,102331.13
2023-02-19T09:00:59.540Z,102334.53
2023-02-19T09:03:26.252Z,102345.59
2023-02-19T09:05:53.010Z,102352.41
2023-02-19T09:08:19.587Z,102342.16
2023-02-19T09:10:49.296Z,102334.47
2023-02-19T09:13:15.720Z,102340.38
2023-02-19T09:15:42.097Z,102346.38
2023-02-19T09:18:08.510Z,102355.72
2023-02-19T09:20:34.922Z,102364.19
2023-02-19T09:23:01.424Z,102358.25
2023-02-19T09:25:30.806Z,102359.06
2023-02-19T09:27:57.370Z,102367.63
2023-02-19T09:30:24.038Z,102362.53
2023-02-19T09:32:50.558Z,102382.16
2023-02-19T09:35:17.002Z,102395.84
2023-02-19T09:37:43.557Z,102403.56
2023-02-19T09:40:10.850Z,102407.00
2023-02-19T09:42:41.921Z,102405.31
2023-02-19T09:45:16.312Z,102413.84
2023-02-19T09:47:42.787Z,102421.59
2023-02-19T09:50:15.045Z,102436.09
2023-02-19T09:53:01.552Z,102427.56
2023-02-19T09:55:36.703Z,102435.25
2023-02-19T09:58:15.281Z,102446.38
2023-02-19T10:00:41.807Z,102444.66
2023-02-19T10:03:16.054Z,102445.53
2023-02-19T10:05:42.990Z,102447.22
2023-02-19T10:08:15.850Z,102458.31
2023-02-19T10:10:44.218Z,102471.13
2023-02-19T10:13:22.721Z,102478.00
2023-02-19T10:15:56.269Z,102491.69
2023-02-19T10:18:25.795Z,102481.44
2023-02-19T10:20:53.004Z,102496.81
2023-02-19T10:23:19.973Z,102497.69
2023-02-19T10:25:54.196Z,102499.38
2023-02-19T10:28:24.629Z,102505.38
2023-02-19T10:30:57.692Z,102508.75
2023-02-19T10:33:25.291Z,102516.44
2023-02-19T10:35:56.189Z,102529.25
2023-02-19T10:38:30.167Z,102518.16
2023-02-19T10:41:01.827Z,102524.97
2023-02-19T10:43:33.866Z,102516.44
2023-02-19T10:46:08.516Z,102518.16
2023-02-19T10:48:40.815Z,102521.59
2023-02-19T10:51:11.280Z,102525.84
2023-02-19T10:53:45.169Z,102527.53
2023-02-19T10:56:26.278Z,102530.13
2023-02-19T10:58:53.161Z,102525.00
2023-02-19T11:01:22.224Z,102522.44
2023-02-19T11:03:52.464Z,102510.47
2023-02-19T11:06:26.650Z,102506.19
2023-02-19T11:08:58.724Z,102501.94
2023-02-19T11:11:37.833Z,102512.19
2023-02-19T11:14:14.650Z,102514.75
2023-02-19T11:16:46.286Z,102519.03
2023-02-19T11:19:36.597Z,102529.28
2023-02-19T11:22:19.886Z,102520.69
2023-02-19T11:24:56.201Z,102528.38
2023-02-19T11:27:25.255Z,102529.28
2023-02-19T11:29:51.713Z,102534.41
2023-02-19T11:32:21.195Z,102527.56
2023-02-19T11:34:48.107Z,102527.56
2023-02-19T11:37:16.976Z,102526.72
2023-02-19T11:39:46.558Z,102534.38
2023-02-19T11:42:30.223Z,102542.09
2023-02-19T11:45:28.680Z,102540.38
2023-02-19T11:48:10.707Z,102546.34
2023-02-19T11:51:00.407Z,102545.50
2023-02-19T11:53:28.343Z,102549.78
2023-02-19T11:56:11.510Z,102541.22
2023-02-19T11:58:59.514Z,102534.41
2023-02-19T12:01:56.443Z,102537.81
2023-02-19T12:04:25.853Z,102537.81
2023-02-19T12:07:25.807Z,102540.38
2023-02-19T12:10:00.910Z,102542.94
2023-02-19T12:12:47.251Z,102542.06
2023-02-19T12:15:34.936Z,102545.47
2023-02-19T12:18:31.256Z,102548.88
2023-02-19T12:21:10.620Z,102552.28
2023-02-19T12:23:54.696Z,102550.56
2023-02-19T12:26:28.605Z,102556.50
2023-02-19T12:29:05.850Z,102557.34
2023-02-19T12:31:35.320Z,102552.22
2023-02-19T12:34:29.271Z,102551.34
2023-02-19T12:37:07.977Z,102559.84
2023-02-19T12:39:41.090Z,102570.94
2023-02-19T12:42:25.985Z,102575.19
2023-02-19T12:45:01.222Z,102565.81
2023-02-19T12:47:38.077Z,102574.34
2023-02-19T12:50:21.515Z,102579.50
2023-02-19T12:52:53.796Z,102588.03
2023-02-19T12:55:28.814Z,102588.00
2023-02-19T12:57:57.996Z,102606.75
2023-02-19T13:00:42.812Z,102605.88
2023-02-19T13:03:32.460Z,102611.81
2023-02-19T13:06:21.678Z,102611.81
2023-02-19T13:09:06.698Z,102606.72
2023-02-19T13:11:51.668Z,102616.94
2023-02-19T13:14:36.923Z,102619.50
2023-02-19T13:17:19.854Z,102623.78
2023-02-19T13:19:50.424Z,102635.75
2023-02-19T13:22:50.172Z,102639.13
2023-02-19T13:25:19.096Z,102638.28
2023-02-19T13:28:03.799Z,102653.63
2023-02-19T13:31:00.228Z,102662.13
2023-02-19T13:33:48.411Z,102639.91
2023-02-19T13:36:21.506Z,102642.44
2023-02-19T13:38:50.217Z,102656.91
2023-02-19T13:41:40.349Z,102654.34
2023-02-19T13:44:16.069Z,102643.28
2023-02-19T13:46:45.464Z,102656.06
2023-02-19T13:49:33.720Z,102663.72
2023-02-19T13:52:02.223Z,102662.91
2023-02-19T13:54:33.352Z,102669.72
2023-02-19T13:57:22.786Z,102665.47
2023-02-19T13:59:50.699Z,102667.22
2023-02-19T14:02:20.214Z,102667.25
2023-02-19T14:05:01.214Z,102663.88
2023-02-19T14:07:27.588Z,102667.31
2023-02-19T14:09:54.682Z,102675.88
2023-02-19T14:12:22.890Z,102680.16
2023-02-19T14:14:56.959Z,102680.19
2023-02-19T14:17:35.167Z,102681.00
2023-02-19T14:20:09.070Z,102671.66
2023-02-19T14:22:55.528Z,102670.78
2023-02-19T14:25:30.728Z,102671.69
2023-02-19T14:28:13.402Z,102660.59
2023-02-19T14:31:11.234Z,102655.47
2023-02-19T14:33:40.211Z,102646.94
2023-02-19T14:36:16.837Z,102650.38
2023-02-19T14:39:12.425Z,102648.69
2023-02-19T14:41:42.153Z,102641.00
2023-02-19T14:44:19.398Z,102634.16
2023-02-19T14:46:57.869Z,102624.78
2023-02-19T14:50:02.855Z,102625.63
2023-02-19T14:52:36.603Z,102635.91
2023-02-19T14:55:14.913Z,102623.09
2023-02-19T14:57:45.723Z,102625.66
2023-02-19T15:00:33.557Z,102610.28
2023-02-19T15:03:00.136Z,102600.94
2023-02-19T15:05:29.379Z,102598.38
2023-02-19T15:07:59.684Z,102609.50
2023-02-19T15:10:29.045Z,102603.50
2023-02-19T15:13:05.933Z,102603.50
2023-02-19T15:15:53.514Z,102615.47
2023-02-19T15:18:22.666Z,102624.00
2023-02-19T15:20:50.486Z,102639.34
2023-02-19T15:23:22.352Z,102641.91
2023-02-19T15:25:49.517Z,102659.00
2023-02-19T15:28:20.090Z,102660.63
2023-02-19T15:30:46.705Z,102669.16
2023-02-19T15:33:19.040Z,102669.16
2023-02-19T15:35:57.750Z,102676.00
2023-02-19T15:38:25.544Z,102678.56
2023-02-19T15:40:53.143Z,102687.06
2023-02-19T15:43:34.696Z,102685.31
2023-02-19T15:46:13.179Z,102681.91
2023-02-19T15:48:49.760Z,102685.31
2023-02-19T15:51:24.601Z,102678.41
2023-02-19T15:54:07.548Z,102674.94
2023-02-19T15:56:37.846Z,102661.31
2023-02-19T15:59:15.805Z,102665.50
2023-02-19T16:01:42.419Z,102671.53
2023-02-19T16:04:17.351Z,102682.59
2023-02-19T16:06:58.949Z,102685.16
2023-02-19T16:09:37.060Z,102696.22
2023-02-19T16:12:19.375Z,102703.03
2023-02-19T16:14:45.827Z,102715.81
2023-02-19T16:17:16.639Z,102715.72
2023-02-19T16:19:45.585Z,102721.66
2023-02-19T16:22:15.963Z,102719.91
2023-02-19T16:24:45.754Z,102713.91
2023-02-19T16:27:25.729Z,102719.88
2023-02-19T16:29:52.225Z,102717.31
2023-02-19T16:32:19.051Z,102724.97
2023-02-19T16:34:51.543Z,102724.94
2023-02-19T16:37:33.161Z,102731.75
2023-02-19T16:40:08.658Z,102719.78
2023-02-19T16:42:38.034Z,102726.63
2023-02-19T16:45:07.970Z,102722.31
2023-02-19T16:47:38.241Z,102722.31
2023-02-19T16:50:13.161Z,102737.66
2023-02-19T16:52:54.217Z,102741.84
2023-02-19T16:55:20.958Z,102746.09
2023-02-19T16:57:47.837Z,102744.31
2023-02-19T17:00:21.490Z,102739.19
2023-02-19T17:02:50.750Z,102734.03
2023-02-19T17:05:18.285Z,102722.94
2023-02-19T17:07:44.872Z,102719.53
2023-02-19T17:10:17.720Z,102712.69
2023-02-19T17:12:44.247Z,102723.81
2023-02-19T17:15:12.232Z,102723.81
2023-02-19T17:17:39.030Z,102728.94
2023-02-19T17:20:17.472Z,102728.88
2023-02-19T17:22:44.623Z,102732.28
2023-02-19T17:25:11.265Z,102735.63
2023-02-19T17:27:37.720Z,102741.56
2023-02-19T17:30:12.892Z,102745.84
2023-02-19T17:32:39.414Z,102750.97
2023-02-19T17:35:06.472Z,102751.78
2023-02-19T17:37:32.860Z,102745.78
2023-02-19T17:39:59.325Z,102753.47
2023-02-19T17:42:25.861Z,102762.78
2023-02-19T17:44:53.555Z,102766.16
2023-02-19T17:47:21.378Z,102769.56
2023-02-19T17:49:47.866Z,102772.94
2023-02-19T17:52:17.509Z,102784.00
2023-02-19T17:54:44.070Z,102789.13
2023-02-19T17:57:10.587Z,102781.44
2023-02-19T17:59:37.005Z,102781.44
2023-02-19T18:02:03.455Z,102775.47
2023-02-19T18:04:29.820Z,102787.34
2023-02-19T18:06:56.301Z,102781.41
2023-02-19T18:09:23.045Z,102778.00
2023-02-19T18:11:49.473Z,102771.13
2023-02-19T18:14:15.940Z,102754.09
2023-02-19T18:16:49.763Z,102761.75
2023-02-19T18:19:16.875Z,102754.09
2023-02-19T18:21:43.272Z,102750.66
2023-02-19T18:24:09.770Z,102748.94
2023-02-19T18:26:36.183Z,102751.47
2023-02-19T18:29:02.629Z,102750.63
2023-02-19T18:31:32.675Z,102749.75
2023-02-19T18:33:59.216Z,102746.31
2023-02-19T18:36:25.704Z,102752.22
2023-02-19T18:38:52.104Z,102751.38
2023-02-19T18:41:21.057Z,102753.81
2023-02-19T18:43:48.022Z,102757.19
2023-02-19T18:46:14.817Z,102749.44
2023-02-19T18:48:41.483Z,102750.25
2023-02-19T18:51:11.702Z,102759.53
2023-02-19T18:53:38.327Z,102751.78
2023-02-19T18:56:05.536Z,102757.66
2023-02-19T18:58:32.018Z,102759.31
2023-02-19T19:00:59.459Z,102771.16
2023-02-19T19:03:26.030Z,102759.97
2023-02-19T19:05:52.685Z,102748.88
2023-02-19T19:08:19.118Z,102754.75
2023-02-19T19:10:45.587Z,102758.91
2023-02-19T19:13:12.013Z,102757.19
2023-02-19T19:15:41.295Z,102763.94
2023-02-19T19:18:08.751Z,102767.34
2023-02-19T19:20:35.282Z,102763.91
2023-02-19T19:23:01.705Z,102766.44
2023-02-19T19:25:28.137Z,102773.25
2023-02-19T19:27:56.225Z,102773.97
2023-02-19T19:30:23.029Z,102781.53
2023-02-19T19:32:50.398Z,102783.19
2023-02-19T19:35:18.946Z,102781.41
2023-02-19T19:37:45.491Z,102774.53
2023-02-19T19:40:12.210Z,102776.97
2023-02-19T19:42:38.678Z,102770.97
2023-02-19T19:45:05.840Z,102775.13
2023-02-19T19:47:32.523Z,102778.50
2023-02-19T19:49:58.958Z,102781.84
2023-02-19T19:52:25.341Z,102780.91
2023-02-19T19:54:54.717Z,102777.41
2023-02-19T19:57:21.173Z,102775.66
2023-02-19T19:59:53.727Z,102758.63
2023-02-19T20:02:20.334Z,102770.44
2023-02-19T20:04:46.893Z,102765.19
2023-02-19T20:07:13.320Z,102768.53
2023-02-19T20:09:39.785Z,102765.09
2023-02-19T20:12:06.681Z,102777.81
2023-02-19T20:14:33.764Z,102771.78
2023-02-19T20:17:00.856Z,102775.13
2023-02-19T20:19:27.276Z,102776.75
2023-02-19T20:21:54.008Z,102764.81
2023-02-19T20:24:26.321Z,102758.78
2023-02-19T20:27:01.881Z,102751.13
2023-02-19T20:29:30.543Z,102752.78
2023-02-19T20:32:00.565Z,102757.00
2023-02-19T20:34:27.688Z,102762.94
2023-02-19T20:36:54.498Z,102763.75
2023-02-19T20:39:21.954Z,102761.97
2023-02-19T20:41:50.811Z,102761.97
2023-02-19T20:44:18.502Z,102767.84
2023-02-19T20:46:49.886Z,102766.09
2023-02-19T20:49:19.160Z,102768.56
2023-02-19T20:51:54.991Z,102770.22
2023-02-19T20:54:28.123Z,102755.72
2023-02-19T20:56:56.629Z,102757.38
2023-02-19T20:59:27.076Z,102761.56
2023-02-19T21:01:53.696Z,102761.44
2023-02-19T21:04:20.213Z,102750.38
2023-02-19T21:06:46.670Z,102746.94
2023-02-19T21:09:13.133Z,102734.16
2023-02-19T21:11:39.743Z,102722.28
2023-02-19T21:14:06.486Z,102712.91
2023-02-19T21:16:33.365Z,102711.19
2023-02-19T21:19:01.074Z,102718.81
2023-02-19T21:21:27.857Z,102717.09
2023-02-19T21:23:56.159Z,102721.34
2023-02-19T21:26:23.313Z,102708.59
2023-02-19T21:28:53.304Z,102728.13
2023-02-19T21:31:20.834Z,102714.53
2023-02-19T21:33:47.404Z,102713.69
2023-02-19T21:36:14.057Z,102717.03
2023-02-19T21:38:40.659Z,102724.66
2023-02-19T21:41:07.205Z,102728.91
2023-02-19T21:43:33.604Z,102727.22
2023-02-19T21:46:00.028Z,102738.28
2023-02-19T21:48:26.501Z,102734.03
2023-02-19T21:50:52.884Z,102738.31
2023-02-19T21:53:19.432Z,102738.31
2023-02-19T21:55:57.790Z,102729.78
2023-02-19T21:58:24.580Z,102736.56
2023-02-19T22:00:50.956Z,102733.22
2023-02-19T22:03:17.426Z,102734.84
2023-02-19T22:05:43.905Z,102726.41
2023-02-19T22:08:10.294Z,102723.06
2023-02-19T22:10:36.676Z,102723.06
2023-02-19T22:13:03.080Z,102728.13
2023-02-19T22:15:29.517Z,102726.38
2023-02-19T22:17:55.920Z,102726.38
2023-02-19T22:20:22.272Z,102723.00
2023-02-19T22:22:49.767Z,102728.88
2023-02-19T22:25:16.831Z,102723.78
2023-02-19T22:27:43.282Z,102717.91
2023-02-19T22:30:10.691Z,102724.72
2023-02-19T22:32:37.283Z,102714.56
2023-02-19T22:35:03.836Z,102707.78
2023-02-19T22:37:30.234Z,102695.88
2023-02-19T22:39:56.652Z,102700.97
2023-02-19T22:42:24.216Z,102704.31
2023-02-19T22:44:50.805Z,102698.34
2023-02-19T22:47:18.584Z,102705.13
2023-02-19T22:49:45.451Z,102700.00
2023-02-19T22:52:12.704Z,102696.63
2023-02-19T22:54:39.401Z,102690.66
2023-02-19T22:57:06.094Z,102680.50
2023-02-19T22:59:32.675Z,102680.53
2023-02-19T23:01:59.116Z,102684.78
2023-02-19T23:04:25.833Z,102680.56
2023-02-19T23:06:52.876Z,102676.38
2023-02-19T23:09:22.804Z,102665.38
2023-02-19T23:11:49.226Z,102669.66
2023-02-19T23:14:17.566Z,102663.75
2023-02-19T23:16:44.157Z,102660.41
2023-02-19T23:19:12.990Z,102657.91
2023-02-19T23:21:41.138Z,102657.94
2023-02-19T23:24:08.195Z,102663.13
2023-02-19T23:26:35.283Z,102668.22
2023-02-19T23:29:02.369Z,102668.28
2023-02-19T23:31:28.961Z,102658.97
2023-02-19T23:33:55.607Z,102666.63
2023-02-19T23:36:23.785Z,102675.22
2023-02-19T23:38:50.211Z,102678.63
2023-02-19T23:41:17.608Z,102682.09
2023-02-19T23:43:44.716Z,102688.03
2023-02-19T23:46:17.643Z,102677.91
2023-02-19T23:48:45.354Z,102668.56
2023-02-19T23:51:12.288Z,102666.91
2023-02-19T23:53:38.714Z,102655.06
2023-02-19T23:56:05.725Z,102644.88
2023-02-19T23:58:32.451Z,102641.50
